STW weather

Stavropol Shpakovskoye Airport
Stavropol, Stavropol Krai, Russia

Public forecast

Using degrees Celsius for public forecast. Weather courtesy of forecast.io.

METAR (pilot weather report)

Retrieved 2019/09/16 23:30 UTC (0 seconds ago):

URMT 162330Z 31003MPS CAVOK 17/06 Q1014 R25/010070 NOSIG RMK QFE722

TAF (pilot weather forecast)

Forecast is more than 12 hours old.

Retrieved 2019/08/03 03:15 UTC (1 month ago):

TAF URMT 030200Z 0303/0321 31005G12MPS 9999 SCT020